Alburnett, Iowa
Current Conditions -  °F | °C
As of 5:52 PM on Sunday 21 Dec 2014 (Local Time) from KCID Reporting Station
Overcast Overcast  
Wind Chill: 32°   Ceiling: 1700
Heat Index: 39°   Visibility: 8mi
Dew Point: 36°   Wind: 10mph
Humidity: 89%   Direction: 150°SSE
Pressure: 29.89"   Gusts: NA
Location:  42.15°N, 91.62°W
Report Text: KCID 212352Z 15009KT 8SM OVC017 04/02 A2989 RMK AO2 SLP128 T00390022 10044 20033 53000 $
Loading
Personal Weather Stations






























Interactive Weather Map New forecast layout! Learn more

10-Day Weather Forecast

Advertisements
Track Severe Weather on mobile